North Vernon, IN (47265)

8:08 AM EST on February 11, 2016 (GMT -0500)
Weston | | Change Station
CLOSE
Current Station
Personal Weather Station
Location: North Vernon, IN
Elevation: 597 ft
Nearby Weather Stations

Elev 597 ft 38.92 °N, 85.71 °W | Updated 24 seconds ago

Partly Cloudy
Partly Cloudy
5.2 °F
Feels Like 5 °F
N
0.0
Wind Variable Wind from ESE

Today
High -- | Low -- °F
--% Chance of Precip.
Yesterday
High -- | Low -- °F
Precip. -- in
Pressure 30.26 in
Visibility 10.0 miles
Clouds Clear
Windchill 5 °F
Dew Point 4 °F
Humidity 96%
Rainfall 0.56 in
Snow Depth Not available.
7:39 AM 6:14 PM
Waxing Crescent, 12% visible
METAR KBAK 111250Z 00000KT 10SM SKC M12/M13 A3026
Pressure 30.26 in
Visibility 10.0 miles
Clouds Clear
Windchill 5 °F
Dew Point 4 °F
Humidity 96%
Rainfall 0.56 in
Snow Depth Not available.
7:39 AM 6:14 PM
Waxing Crescent, 12% visible
METAR KBAK 111250Z 00000KT 10SM SKC M12/M13 A3026

10-Day Weather Forecast

Almanac

Astronomy

Feb. 11, 2016 Rise Set
Actual Time
Civil Twilight
Nautical Twilight
Astronomical Twilight
Moon
Length of Visible Light
Length of Day
Tomorrow will be .
, % of the Moon is Illuminated

Today's Extremes

State Highs State Lows

Community

WunderPhotos

Upload Photos

1,892,038 photos uploaded!

WunderBlog® & News

Nearby

Air Quality

  Air Quality AQ Index Pollutant
Not available.

Snow Depth

Station Depth Elevation

Earthquake Activity

City Distance Mag. Time & Date
Minimum magnitude displayed is 2.5.

Coastal Water Temperatures

Place Temperature

Stations

Nearby Weather Stations

Station Location Temp. Windchill Dew Point Humidity Wind Precip. Elev Updated Type
                   

Watches & Warnings

There are currently no watches in effect.